Flight Track Log - Related Links

Times and Time Zones

All times are in EDT time to prevent confusion due to time zone crossing. See the NKS904 flight status page for this flight to view local times or setup timezone preferences in your user account.

Time Position Orientation Groundspeed Altitude Reporting Facility
EDT Latitude Longitude Course Direction KTS MPH feet Rate Location/Type
Sat 12:38:52 PM 32.9300 -97.0290 North 171 197 2,200  Level FlightAware ADS-B
Sat 12:39:17 PM 32.9520 -97.0240 11° North 211 243 2,600 1,855 Climbing FlightAware ADS-B
Sat 12:39:47 PM 32.9830 -97.0120 18° North 245 282 3,900 3,055 Climbing FlightAware ADS-B
Sat 12:40:12 PM 33.0080 -96.9960 28° Northeast 251 289 5,400 3,300 Climbing FlightAware ADS-B
Sat 12:40:27 PM 33.0160 -96.9800 59° Northeast 265 305 6,100 3,120 Climbing FlightAware ADS-B
Sat 12:40:37 PM 33.0190 -96.9640 77° East 275 316 6,700 3,200 Climbing FlightAware ADS-B
Sat 12:40:57 PM 33.0160 -96.9310 96° East 295 339 7,700 2,743 Climbing FlightAware ADS-B
Sat 12:41:12 PM 33.0140 -96.9070 96° East 306 352 8,300 2,550 Climbing FlightAware ADS-B
Sat 12:41:37 PM 33.0030 -96.8630 107° East 326 375 9,400 1,855 Climbing FlightAware ADS-B
Sat 12:42:07 PM 32.9900 -96.8100 106° East 335 386 10,000 1,114 Climbing FlightAware ADS-B
Sat 12:42:47 PM 32.9700 -96.7340 107° East 390 449 10,700 1,835 Climbing FlightAware ADS-B
Sat 12:43:32 PM 32.9460 -96.6420 107° East 406 467 12,600 2,400 Climbing FlightAware ADS-B
Sat 12:44:12 PM 32.9230 -96.5540 107° East 423 487 14,100 2,325 Climbing FlightAware ADS-B
Sat 12:44:52 PM 32.8980 -96.4590 107° East 436 502 15,700 2,329 Climbing FlightAware ADS-B
Sat 12:45:37 PM 32.8710 -96.3560 107° East 447 514 17,400 2,118 Climbing FlightAware ADS-B
Sat 12:46:17 PM 32.8660 -96.2580 93° East 448 516 18,700 1,906 Climbing FlightAware ADS-B
Sat 12:47:02 PM 32.8690 -96.1450 88° East 461 531 20,100 1,765 Climbing FlightAware ADS-B
Sat 12:47:42 PM 32.8710 -96.0420 89° East 473 544 21,200 1,976 Climbing FlightAware ADS-B
Sat 12:48:27 PM 32.8730 -95.9280 89° East 471 542 22,900 1,725 Climbing FlightAware ADS-B
Sat 12:49:02 PM 32.8740 -95.8360 89° East 485 558 23,500 1,125 Climbing FlightAware ADS-B
Sat 12:49:47 PM 32.8760 -95.7150 89° East 500 575 24,400 1,333 Climbing FlightAware ADS-B
Sat 12:50:14 PM 32.8771 -95.6327 89° East 505 581 25,100 1,475 Climbing FlightAware ADS-B
Sat 12:50:48 PM 32.8783 -95.5386 89° East 507 583 25,900 1,390 Climbing FlightAware ADS-B
Sat 12:51:36 PM 32.8800 -95.4024 89° East 514 592 27,000 1,333 Climbing FlightAware ADS-B
Sat 12:52:00 PM 32.8850 -95.3365 85° East 515 593 27,500 1,309 Climbing FlightAware ADS-B
Sat 12:52:31 PM 32.8985 -95.2501 79° East 517 595 28,200 1,164 Climbing FlightAware ADS-B
Sat 12:53:07 PM 32.9143 -95.1479 80° East 524 603 28,800 1,014 Climbing FlightAware ADS-B
Sat 12:53:42 PM 32.9293 -95.0487 80° East 526 605 29,400 963 Climbing FlightAware ADS-B
Sat 12:54:28 PM 32.9498 -94.9131 80° East 540 621 30,100 1,037 Climbing FlightAware ADS-B
Sat 12:55:03 PM 32.9652 -94.8098 80° East 545 627 30,800 1,343 Climbing FlightAware ADS-B
Sat 12:55:35 PM 32.9791 -94.7160 80° East 542 624 31,600 1,455 Climbing FlightAware ADS-B
Sat 12:56:09 PM 32.9935 -94.6188 80° East 537 618 32,400 1,164 Climbing FlightAware ADS-B
Sat 12:56:42 PM 33.0078 -94.5220 80° East 539 620 32,900 1,108 Climbing FlightAware ADS-B
Sat 12:57:14 PM 33.0218 -94.4274 80° East 538 619 33,600 1,238 Climbing FlightAware ADS-B
Sat 12:57:45 PM 33.0346 -94.3390 80° East 536 617 34,200 874 Climbing FlightAware ADS-B
Sat 12:58:57 PM 33.0650 -94.1330 80° East 543 625 35,100 505 Climbing FlightAware ADS-B
Sat 12:59:32 PM 33.0780 -94.0440 80° East 543 625 35,100  Level FlightAware ADS-B
Sat 01:00:12 PM 33.0930 -93.9430 80° East 543 625 35,100  Level FlightAware ADS-B
Sat 01:00:52 PM 33.1070 -93.8430 80° East 543 625 35,100  Level FlightAware ADS-B
Sat 01:01:42 PM 33.1260 -93.7170 80° East 543 625 35,100  Level FlightAware ADS-B
Sat 01:02:22 PM 33.1410 -93.6170 80° East 543 625 35,100 2,073 Level FlightAware ADS-B
Sat 01:02:37 PM 32.9934 -93.4805 142° Southeast 545 627 37,000 2,235 Climbing FlightAware ADS-B
Sat 01:03:13 PM 32.9759 -93.3791 102° East 543 625 37,000  Level FlightAware ADS-B
Sat 01:03:43 PM 32.9601 -93.2882 102° East 544 626 37,000  Level FlightAware ADS-B
Sat 01:04:13 PM 32.9446 -93.1989 102° East 540 621 37,000 95 Level FlightAware ADS-B
Sat 01:04:46 PM 32.9280 -93.1042 102° East 537 618 37,100  Climbing FlightAware ADS-B
Sat 01:05:19 PM 32.9114 -93.0098 102° East 535 616 37,000 -78 Descending FlightAware ADS-B
Sat 01:06:03 PM 32.8919 -92.8911 102° East 539 620 37,000  Level Fort Worth Center
Sat 01:07:03 PM 32.8628 -92.7194 101° East 539 620 37,000  Level Fort Worth Center
Sat 01:08:03 PM 32.8353 -92.5506 101° East 534 615 37,000  Level Fort Worth Center
Sat 01:09:03 PM 32.8036 -92.3817 103° East 534 615 37,000  Level Fort Worth Center
Sat 01:10:03 PM 32.7717 -92.2131 103° East 528 608 37,000  Level Fort Worth Center
Sat 01:12:20 PM 32.7028 -91.8458 102° East 509 586 37,000  Level Memphis Center
Sat 01:13:20 PM 32.6672 -91.6775 104° East 514 592 37,000  Level Memphis Center
Sat 01:14:20 PM 32.6375 -91.5094 102° East 514 592 37,000  Level Memphis Center
Sat 01:15:20 PM 32.6056 -91.3414 103° East 514 592 37,000  Level Memphis Center
Sat 01:16:20 PM 32.5711 -91.1733 104° East 514 592 37,000  Level Memphis Center
Sat 01:17:20 PM 32.5408 -91.0031 102° East 519 597 37,000  Level Memphis Center
Sat 01:18:20 PM 32.5019 -90.8156 104° East 525 604 37,000  Level Memphis Center
Sat 01:19:20 PM 32.4692 -90.6453 103° East 525 604 37,000  Level Memphis Center
Sat 01:20:20 PM 32.4381 -90.4731 102° East 530 610 37,000  Level Memphis Center
Sat 01:21:20 PM 32.4025 -90.3056 104° East 530 610 37,000  Level Memphis Center
Sat 01:22:20 PM 32.3689 -90.1358 103° East 525 604 37,000  Level Memphis Center
Sat 01:23:20 PM 32.3353 -89.9664 103° East 525 604 37,000  Level Memphis Center
Sat 01:24:20 PM 32.3011 -89.8019 104° East 525 604 37,000  Level Memphis Center
Sat 01:25:20 PM 32.2669 -89.6350 104° East 525 604 37,000  Level Memphis Center
Sat 01:26:20 PM 32.2325 -89.4658 103° East 525 604 37,000  Level Memphis Center
Sat 01:27:20 PM 32.1997 -89.3017 103° East 525 604 37,000  Level Memphis Center
Sat 01:28:20 PM 32.1669 -89.1500 104° East 525 604 37,000  Level Memphis Center
Sat 01:30:37 PM 32.0822 -88.7597 104° East 520 598 37,000  Level Atlanta Center
Sat 01:31:37 PM 32.0486 -88.5939 103° East 520 598 37,000  Level Atlanta Center
Sat 01:32:37 PM 32.0131 -88.4256 104° East 520 598 37,000  Level Atlanta Center
Sat 01:33:37 PM 31.9792 -88.2647 104° East 520 598 37,000  Level Atlanta Center
Sat 01:35:19 PM 31.9194 -88.0053 105° East 517 595 37,000  Level Jacksonville Center
Sat 01:36:19 PM 31.8842 -87.8419 104° East 517 595 37,000  Level Jacksonville Center
Sat 01:37:19 PM 31.8486 -87.6786 104° East 522 601 37,000  Level Jacksonville Center
Sat 01:38:19 PM 31.8131 -87.5106 104° East 522 601 37,000  Level Jacksonville Center
Sat 01:39:19 PM 31.7753 -87.3450 105° East 522 601 37,000  Level Jacksonville Center
Sat 01:40:19 PM 31.7314 -87.1644 106° East 522 601 37,000  Level Jacksonville Center
Sat 01:41:19 PM 31.6928 -86.9992 105° East 522 601 37,000  Level Jacksonville Center
Sat 01:42:19 PM 31.6544 -86.8339 105° East 522 601 37,000  Level Jacksonville Center
Sat 01:43:19 PM 31.6175 -86.6714 105° East 522 601 37,000  Level Jacksonville Center
Sat 01:44:19 PM 31.5764 -86.5039 106° East 522 601 37,000  Level Jacksonville Center
Sat 01:45:19 PM 31.5372 -86.3417 106° East 522 601 37,000  Level Jacksonville Center
Sat 01:46:19 PM 31.4997 -86.1794 105° East 517 595 37,000  Level Jacksonville Center
Sat 01:47:19 PM 31.4622 -86.0125 105° East 522 601 37,000  Level Jacksonville Center
Sat 01:48:19 PM 31.4219 -85.8553 107° East 522 601 37,000  Level Jacksonville Center
Sat 01:49:19 PM 31.3839 -85.6936 105° East 517 595 37,000  Level Jacksonville Center
Sat 01:50:19 PM 31.3456 -85.5342 106° East 517 595 37,000  Level Jacksonville Center
Sat 01:51:19 PM 31.3094 -85.3678 104° East 517 595 37,000  Level Jacksonville Center
Sat 01:52:19 PM 31.2686 -85.2064 106° East 517 595 37,000  Level Jacksonville Center
Sat 01:53:19 PM 31.2275 -85.0475 107° East 517 595 37,000  Level Jacksonville Center
Sat 01:54:19 PM 31.1883 -84.8911 106° East 517 595 37,000  Level Jacksonville Center
Sat 01:55:19 PM 31.1489 -84.7300 106° East 512 589 37,000  Level Jacksonville Center
Sat 02:00:22 PM 30.9590 -83.9640 106° East 494 568 37,000 -277 Level FlightAware ADS-B
Sat 02:01:27 PM 30.9150 -83.7960 107° East 514 592 35,300 -1,257 Descending FlightAware ADS-B
Sat 02:02:07 PM 30.9040 -83.6870 97° East 516 594 34,800 -375 Descending FlightAware ADS-B
Sat 02:02:47 PM 30.8950 -83.5930 96° East 516 594 34,800 -1,835 Level FlightAware ADS-B
Sat 02:03:32 PM 30.9050 -83.6660 279° West 514 592 32,200 -1,835 Descending FlightAware ADS-B
Sat 02:04:12 PM 30.8990 -83.5720 94° East 514 592 32,200  Level FlightAware ADS-B
Sat 02:04:52 PM 30.8930 -83.4780 94° East 514 592 32,200  Level FlightAware ADS-B
Sat 02:05:32 PM 30.8880 -83.3840 94° East 514 592 32,200  Level FlightAware ADS-B
Sat 02:06:22 PM 30.8810 -83.2670 94° East 514 592 32,200  Level FlightAware ADS-B
Sat 02:07:02 PM 30.8750 -83.1730 94° East 514 592 32,200  Level FlightAware ADS-B
Sat 02:07:42 PM 30.8690 -83.0790 94° East 514 592 32,200  Level FlightAware ADS-B
Sat 02:08:22 PM 30.8640 -82.9850 94° East 514 592 32,200  Level FlightAware ADS-B
Sat 02:09:02 PM 30.8580 -82.8910 94° East 514 592 32,200  Level FlightAware ADS-B
Sat 02:09:52 PM 30.8510 -82.7730 94° East 514 592 32,200  Level FlightAware ADS-B
Sat 02:10:32 PM 30.8450 -82.6790 94° East 514 592 32,200  Level FlightAware ADS-B
Sat 02:11:12 PM 30.8400 -82.5850 94° East 514 592 32,200  Level FlightAware ADS-B
Sat 02:11:52 PM 30.8340 -82.4910 94° East 514 592 32,200  Level FlightAware ADS-B
Sat 02:12:32 PM 30.8280 -82.3980 94° East 514 592 32,200 -1,878 Level FlightAware ADS-B
Sat 02:15:42 PM 29.8250 -82.3820 179° South 411 473 25,000 -1,878 Descending FlightAware ADS-B
Sat 02:16:22 PM 29.7530 -82.3470 157° South 412 474 25,000 -379 Level FlightAware ADS-B
Sat 02:17:17 PM 29.6620 -82.3040 158° South 404 465 24,400 -1,260 Descending FlightAware ADS-B
Sat 02:18:02 PM 29.5800 -82.2640 157° South 403 464 22,900 -1,275 Descending FlightAware ADS-B
Sat 02:18:37 PM 29.5240 -82.2370 157° South 401 461 22,700 -160 Descending FlightAware ADS-B
Sat 02:19:17 PM 29.4660 -82.2080 156° South 401 461 22,700 -2,333 Level FlightAware ADS-B
Sat 02:20:07 PM 29.3690 -82.1630 158° South 381 438 19,200 -3,000 Descending FlightAware ADS-B
Sat 02:20:47 PM 29.3060 -82.1320 157° South 370 426 18,200 -1,575 Descending FlightAware ADS-B
Sat 02:21:27 PM 29.2410 -82.1020 158° South 363 418 17,100 -1,624 Descending FlightAware ADS-B
Sat 02:22:12 PM 29.1740 -82.0700 157° South 355 409 15,900 -1,680 Descending FlightAware ADS-B
Sat 02:23:07 PM 29.0900 -82.0300 157° South 344 396 14,300 -1,600 Descending FlightAware ADS-B
Sat 02:23:42 PM 29.0450 -82.0080 157° South 338 389 13,500 -1,516 Descending FlightAware ADS-B
Sat 02:24:42 PM 28.9580 -81.9670 158° South 325 374 11,900 -1,257 Descending FlightAware ADS-B
Sat 02:25:27 PM 28.8940 -81.9360 157° South 309 356 11,300 -700 Descending FlightAware ADS-B
Sat 02:25:42 PM 28.8780 -81.9210 141° Southeast 316 364 11,200 -480 Descending FlightAware ADS-B
Sat 02:26:17 PM 28.8490 -81.8720 124° Southeast 313 360 10,900 -1,029 Descending FlightAware ADS-B
Sat 02:26:52 PM 28.8230 -81.8260 123° Southeast 312 359 10,000 -900 Descending FlightAware ADS-B
Sat 02:27:17 PM 28.8050 -81.7950 124° Southeast 312 359 10,000 -1,418 Level FlightAware ADS-B
Sat 02:28:42 PM 28.7460 -81.6770 120° Southeast 295 339 7,400 -1,543 Descending FlightAware ADS-B
Sat 02:29:02 PM 28.7470 -81.6440 88° East 279 321 7,300 -218 Descending FlightAware ADS-B
Sat 02:29:37 PM 28.7510 -81.5970 84° East 252 290 7,200 -92 Descending FlightAware ADS-B
Sat 02:30:07 PM 28.7540 -81.5570 85° East 240 276 7,200 -100 Level FlightAware ADS-B
Sat 02:30:37 PM 28.7560 -81.5180 87° East 241 277 7,100 -436 Descending FlightAware ADS-B
Sat 02:31:02 PM 28.7590 -81.4880 83° East 244 281 6,800 -900 Descending FlightAware ADS-B
Sat 02:31:17 PM 28.7600 -81.4670 87° East 240 276 6,500 -900 Descending FlightAware ADS-B
Sat 02:31:42 PM 28.7620 -81.4360 86° East 234 269 6,200 -982 Descending FlightAware ADS-B
Sat 02:32:12 PM 28.7600 -81.3980 93° East 235 270 5,600 -1,200 Descending FlightAware ADS-B
Sat 02:32:42 PM 28.7540 -81.3630 101° East 236 272 5,000 -1,200 Descending FlightAware ADS-B
Sat 02:32:57 PM 28.7450 -81.3470 123° Southeast 227 261 4,700 -1,200 Descending FlightAware ADS-B
Sat 02:33:07 PM 28.7360 -81.3400 146° Southeast 230 265 4,500 -960 Descending FlightAware ADS-B
Sat 02:33:22 PM 28.7230 -81.3330 155° Southeast 226 260 4,300 -450 Descending FlightAware ADS-B
Sat 02:33:47 PM 28.6980 -81.3300 174° South 224 258 4,200 -109 Descending FlightAware ADS-B
Sat 02:34:17 PM 28.6680 -81.3290 178° South 232 267 4,200 -150 Level FlightAware ADS-B
Sat 02:34:27 PM 28.6530 -81.3290 180° South 233 268 4,100 -933 Descending FlightAware ADS-B
Sat 02:35:02 PM 28.6180 -81.3290 180° South 229 264 3,500 -1,100 Descending FlightAware ADS-B
Sat 02:35:27 PM 28.5920 -81.3280 178° South 211 243 3,000 -1,015 Descending FlightAware ADS-B
Sat 02:36:07 PM 28.5590 -81.3280 180° South 195 224 2,400 -1,000 Descending FlightAware ADS-B
Sat 02:36:27 PM 28.5370 -81.3280 180° South 166 191 2,000 -1,067 Descending FlightAware ADS-B
Sat 02:36:52 PM 28.5180 -81.3280 180° South 145 167 1,600 -800 Descending FlightAware ADS-B
Sat 02:37:12 PM 28.5060 -81.3280 180° South 145 167 1,400 -686 Descending FlightAware ADS-B
Sat 02:38:02 PM 28.4720 -81.3270 179° South 132 152 800 -738 Descending FlightAware ADS-B
Sat 02:38:17 PM 28.4630 -81.3270 180° South 134 154 600 -686 Descending FlightAware ADS-B
Sat 02:38:37 PM 28.4500 -81.3270 180° South 131 151 400 -600 Descending FlightAware ADS-B

Login

Don't have an account? Register now (free) for customized features, flight alerts, and more!